Date,TemperatureHighF,TemperatureAvgF,TemperatureLowF,DewpointHighF,DewpointAvgF,DewpointLowF,HumidityHigh,HumidityAvg,HumidityLow,PressureMaxIn,PressureMinIn,WindSpeedMaxMPH,WindSpeedAvgMPH,GustSpeedMaxMPH,PrecipitationSumIn
2013-9-1,84.0,74.1,70.8,78.0,72.8,70.0,100,96,74,29.91,29.83,2,0,6,0.71
2013-9-2,82.3,73.5,70.2,76.0,71.8,70.0,100,94,74,29.96,29.85,2,0,5,0.14
2013-9-3,89.7,78.1,70.9,76.0,72.4,70.0,99,84,55,29.96,29.86,3,0,6,0.14
2013-9-4,90.7,77.2,67.4,74.0,69.4,67.0,99,79,48,30.07,29.94,1,0,4,0.00
2013-9-5,90.1,76.9,67.5,73.0,69.6,67.0,98,80,50,30.11,30.03,3,0,4,0.00
2013-9-6,87.5,75.4,66.5,71.0,68.2,66.0,98,80,58,30.13,30.03,3,0,13,0.00
2013-9-7,88.6,75.1,64.6,70.0,66.9,64.0,98,78,49,30.11,29.98,3,0,5,0.00
2013-9-8,90.4,77.3,66.2,73.0,69.0,65.0,99,78,47,30.01,29.91,4,0,7,0.00
2013-9-9,89.7,77.7,68.3,73.0,69.8,68.0,97,78,52,30.09,29.96,2,0,6,0.00
2013-9-10,87.8,76.7,67.7,75.0,70.0,67.0,97,81,57,30.20,30.09,4,0,6,0.00
2013-9-11,90.9,76.9,66.5,73.0,68.0,65.0,98,77,44,30.20,30.07,2,0,6,0.00
2013-9-12,90.3,78.5,68.9,71.0,68.8,66.0,93,74,50,30.09,29.88,3,0,7,0.00
2013-9-13,87.8,75.8,64.6,70.0,64.9,57.0,93,71,43,29.90,29.78,5,0,10,0.00
2013-9-14,82.6,67.8,55.1,62.0,57.4,53.0,94,72,44,30.06,29.88,8,0,10,0.00
2013-9-15,83.6,71.6,60.7,72.0,65.9,59.0,95,83,63,30.15,30.06,3,0,7,0.00
2013-9-16,89.3,75.5,66.9,73.0,65.9,60.0,97,75,42,30.13,30.03,2,0,5,0.00
2013-9-17,77.8,70.9,66.3,64.0,62.9,61.0,90,76,60,30.21,30.08,8,1,12,0.00
2013-9-18,78.0,69.6,64.9,65.0,61.6,59.0,90,76,61,30.23,30.12,5,0,8,0.00
2013-9-19,86.4,70.9,59.4,66.0,62.9,59.0,97,78,48,30.18,30.06,3,0,3,0.00
2013-9-20,88.4,74.5,62.2,69.0,65.3,61.0,97,76,47,30.07,29.89,2,0,5,0.00
2013-9-21,73.3,68.8,64.1,71.0,66.6,64.0,99,93,79,29.91,29.70,3,0,6,1.57
2013-9-22,81.1,67.4,57.9,66.0,61.8,58.0,99,84,55,29.87,29.75,2,0,6,1.57
2013-9-23,81.8,68.2,58.6,66.0,61.0,58.0,98,80,52,30.00,29.87,4,0,6,0.00
2013-9-24,70.3,66.7,64.2,65.0,63.1,61.0,98,88,77,30.02,29.88,4,0,6,0.04
2013-9-25,65.9,64.0,62.6,65.0,63.5,62.0,99,98,93,29.89,29.82,4,0,7,0.41
2013-9-26,79.2,67.2,59.2,67.0,63.4,59.0,100,88,65,30.00,29.87,3,0,6,0.42
2013-9-27,77.5,67.9,57.9,66.0,60.3,57.0,97,79,53,30.13,30.00,4,0,9,0.00
2013-9-28,74.8,64.1,55.4,60.0,57.2,55.0,97,80,55,30.21,30.10,6,0,9,0.00
2013-9-29,74.8,62.8,53.9,59.0,56.2,53.0,97,81,54,30.15,30.03,5,0,7,0.00
2013-9-30,78.1,64.7,54.3,62.0,58.1,54.0,98,81,53,30.09,29.99,1,0,5,0.00